Time;durP1;ratioP1;P1;durP2;ratioP2;P2;SDS_P1;SDS_P2;PMS_P1;PMS_P2;Temp;Humidity;BMP_temperature;BMP_pressure;BME280_temperature;BME280_humidity;BME280_pressure;Samples;Min_cycle;Max_cycle;Signal;HPM_P1;HPM_P2
2022/04/12 00:02:14;;;;;;;14.52;10.60;;;7.10;99.90;;;;;;4965414;28;20058;-44
2022/04/12 00:04:40;;;;;;;15.27;11.02;;;7.00;99.90;;;;;;4967658;28;20125;-45
2022/04/12 00:07:05;;;;;;;14.70;10.98;;;7.00;99.90;;;;;;4964081;28;20573;-44
2022/04/12 00:09:31;;;;;;;14.90;11.25;;;7.00;99.90;;;;;;4962979;28;20581;-45
2022/04/12 00:11:58;;;;;;;15.05;11.10;;;7.00;99.90;;;;;;4966366;28;20062;-44
2022/04/12 00:14:24;;;;;;;13.10;11.32;;;7.00;99.90;;;;;;4964461;28;20142;-46
2022/04/12 00:19:02;;;;;;;15.02;12.38;;;7.00;99.90;;;;;;4961790;28;20150;-46
2022/04/12 00:19:36;;;;;;;16.17;11.77;;;6.90;99.90;;;;;;4972039;28;20133;-48
2022/04/12 00:22:01;;;;;;;15.07;11.52;;;6.90;99.90;;;;;;4966963;28;20047;-45
2022/04/12 00:24:27;;;;;;;15.43;12.43;;;6.90;99.90;;;;;;4972600;28;20050;-44
2022/04/12 00:26:53;;;;;;;14.52;12.50;;;6.90;99.90;;;;;;4968068;28;20054;-45
2022/04/12 00:29:20;;;;;;;16.50;12.60;;;6.90;99.90;;;;;;4968678;28;20047;-47
2022/04/12 00:31:47;;;;;;;15.18;13.20;;;6.80;99.90;;;;;;4963258;28;20050;-44
2022/04/12 00:34:18;;;;;;;17.00;12.73;;;6.80;99.90;;;;;;4966584;28;20061;-44
2022/04/12 00:36:44;;;;;;;15.93;13.23;;;6.80;99.90;;;;;;4964593;28;20042;-43
2022/04/12 00:39:09;;;;;;;13.95;12.35;;;6.70;99.90;;;;;;4963902;28;20062;-44
2022/04/12 00:41:35;;;;;;;17.42;13.07;;;6.70;99.90;;;;;;4963839;28;20042;-46
2022/04/12 00:44:03;;;;;;;14.88;13.25;;;6.70;99.90;;;;;;4963474;28;20616;-44
2022/04/12 00:46:29;;;;;;;15.38;12.75;;;6.60;99.90;;;;;;4970405;28;20062;-47
2022/04/12 00:48:54;;;;;;;14.20;12.70;;;6.60;99.90;;;;;;4963088;28;20046;-44
2022/04/12 00:51:20;;;;;;;17.45;13.70;;;6.60;99.90;;;;;;4970362;28;20484;-45
2022/04/12 00:53:48;;;;;;;16.38;13.15;;;6.50;99.90;;;;;;4963935;28;20051;-46
2022/04/12 00:56:15;;;;;;;15.43;13.82;;;6.50;99.90;;;;;;4965098;28;20566;-45
2022/04/12 00:58:45;;;;;;;19.25;13.70;;;6.40;99.90;;;;;;4967956;28;20533;-44
2022/04/12 01:01:11;;;;;;;15.57;13.35;;;6.40;99.90;;;;;;4972141;28;20054;-46
2022/04/12 01:03:36;;;;;;;16.65;13.55;;;6.40;99.90;;;;;;4962974;28;20409;-44
2022/04/12 01:06:02;;;;;;;21.02;14.32;;;6.40;99.90;;;;;;4969315;28;20054;-44
2022/04/12 01:08:28;;;;;;;17.75;14.95;;;6.30;99.90;;;;;;4948466;28;20590;-45
2022/04/12 01:10:54;;;;;;;17.25;14.93;;;6.30;99.90;;;;;;4962006;28;20506;-45
2022/04/12 01:13:29;;;;;;;19.08;14.75;;;6.30;99.90;;;;;;4962398;28;20461;-44
2022/04/12 01:15:54;;;;;;;17.95;13.73;;;6.20;99.90;;;;;;4965194;28;20078;-45
2022/04/12 01:18:20;;;;;;;16.35;13.73;;;6.20;99.90;;;;;;4959020;28;20466;-44
2022/04/12 01:20:46;;;;;;;16.38;14.15;;;6.20;99.90;;;;;;4974294;28;20493;-45
2022/04/12 01:23:27;;;;;;;18.58;15.00;;;6.20;99.90;;;;;;4975752;28;20050;-45
2022/04/12 01:25:59;;;;;;;18.08;14.32;;;6.10;99.90;;;;;;4958530;28;20141;-44
2022/04/12 01:28:25;;;;;;;20.07;14.90;;;6.10;99.90;;;;;;4980036;28;20050;-46
2022/04/12 01:30:51;;;;;;;18.10;14.63;;;6.10;99.90;;;;;;4967959;28;20050;-44
2022/04/12 01:33:18;;;;;;;18.42;15.38;;;6.10;99.90;;;;;;4964159;28;20086;-45
2022/04/12 01:35:44;;;;;;;17.73;15.18;;;6.10;99.90;;;;;;4974313;28;20050;-44
2022/04/12 01:38:10;;;;;;;17.50;14.80;;;6.00;99.90;;;;;;4963430;28;20386;-44
2022/04/12 01:40:36;;;;;;;17.58;15.25;;;6.00;99.90;;;;;;4951315;28;20498;-46
2022/04/12 01:43:01;;;;;;;18.45;15.32;;;5.90;99.90;;;;;;4960283;28;20061;-45
2022/04/12 01:45:27;;;;;;;19.20;15.75;;;5.90;99.90;;;;;;4960933;28;20058;-45
2022/04/12 01:47:53;;;;;;;18.92;16.23;;;5.80;99.90;;;;;;4970114;28;20047;-45
2022/04/12 01:50:19;;;;;;;19.85;16.38;;;5.80;99.90;;;;;;4961101;28;20059;-45
2022/04/12 01:52:45;;;;;;;18.48;14.85;;;5.80;99.90;;;;;;4975885;28;20101;-43
2022/04/12 01:55:11;;;;;;;17.25;15.13;;;5.70;99.90;;;;;;4961606;28;20462;-44
2022/04/12 01:57:37;;;;;;;21.42;15.77;;;5.70;99.90;;;;;;4965555;28;20053;-43
2022/04/12 02:00:05;;;;;;;21.40;15.57;;;5.70;99.90;;;;;;4972661;28;20050;-45
2022/04/12 02:02:31;;;;;;;20.50;15.65;;;5.70;99.90;;;;;;4960876;28;20509;-45
2022/04/12 02:04:56;;;;;;;19.58;15.07;;;5.70;99.90;;;;;;4967028;28;20051;-46
2022/04/12 02:07:22;;;;;;;19.02;16.70;;;5.70;99.90;;;;;;4959616;28;20054;-43
2022/04/12 02:09:53;;;;;;;20.40;15.90;;;5.70;99.90;;;;;;4944871;28;20398;-44
2022/04/12 02:12:19;;;;;;;21.25;16.10;;;5.60;99.90;;;;;;4959361;28;20506;-45
2022/04/12 02:14:45;;;;;;;19.58;15.13;;;5.60;99.90;;;;;;4963451;28;20099;-44
2022/04/12 02:17:10;;;;;;;21.27;16.60;;;5.60;99.90;;;;;;4957457;28;20043;-44
2022/04/12 02:19:36;;;;;;;19.98;16.27;;;5.60;99.90;;;;;;4970589;28;20038;-43
2022/04/12 02:22:02;;;;;;;23.48;15.70;;;5.50;99.90;;;;;;4977272;28;20077;-43
2022/04/12 02:24:28;;;;;;;18.92;16.70;;;5.50;99.90;;;;;;4955173;28;20051;-46
2022/04/12 02:26:53;;;;;;;20.27;17.17;;;5.50;99.90;;;;;;4970770;28;20131;-44
2022/04/12 02:29:19;;;;;;;17.55;15.32;;;5.50;99.90;;;;;;4968504;28;20093;-44
2022/04/12 02:31:45;;;;;;;21.25;16.80;;;5.50;99.90;;;;;;4955508;28;20058;-44
2022/04/12 02:34:10;;;;;;;17.48;15.30;;;5.50;99.90;;;;;;4955381;28;20059;-45
2022/04/12 02:36:36;;;;;;;19.38;16.08;;;5.40;99.90;;;;;;4969552;28;20850;-45
2022/04/12 02:39:03;;;;;;;20.27;15.98;;;5.40;99.90;;;;;;4969526;28;20050;-44
2022/04/12 02:41:28;;;;;;;19.80;15.32;;;5.40;99.90;;;;;;4953711;28;20533;-45
2022/04/12 02:43:57;;;;;;;21.10;16.40;;;5.40;99.90;;;;;;4970782;28;20082;-44
2022/04/12 02:46:22;;;;;;;18.52;16.38;;;5.40;99.90;;;;;;4966319;28;20120;-45
2022/04/12 02:48:48;;;;;;;18.25;15.82;;;5.40;99.90;;;;;;4959198;28;20054;-43
2022/04/12 02:51:14;;;;;;;22.30;16.30;;;5.30;99.90;;;;;;4957070;28;20046;-45
2022/04/12 02:53:40;;;;;;;17.67;15.77;;;5.30;99.90;;;;;;4957336;28;20050;-44
2022/04/12 02:56:05;;;;;;;20.73;16.00;;;5.30;99.90;;;;;;4972852;28;20088;-47
2022/04/12 02:58:31;;;;;;;17.55;15.65;;;5.30;99.90;;;;;;4963201;28;20047;-45
2022/04/12 03:00:57;;;;;;;19.10;15.95;;;5.30;99.90;;;;;;4974920;28;20077;-45
2022/04/12 03:03:22;;;;;;;21.55;17.15;;;5.30;99.90;;;;;;4960070;28;20055;-45
2022/04/12 03:05:48;;;;;;;23.23;16.88;;;5.30;99.90;;;;;;4963706;28;20055;-44
2022/04/12 03:08:14;;;;;;;18.88;15.57;;;5.30;99.90;;;;;;4967996;28;20545;-43
2022/04/12 03:10:39;;;;;;;22.15;17.02;;;5.30;99.90;;;;;;4971741;28;20596;-45
2022/04/12 03:13:05;;;;;;;21.92;17.65;;;5.30;99.90;;;;;;4972812;28;20057;-44
2022/04/12 03:15:31;;;;;;;20.50;15.90;;;5.30;99.90;;;;;;4965673;28;20042;-44
2022/04/12 03:17:57;;;;;;;18.30;16.30;;;5.30;99.90;;;;;;4956265;28;20101;-44
2022/04/12 03:20:22;;;;;;;21.40;15.75;;;5.30;99.90;;;;;;4967216;28;20045;-45
2022/04/12 03:22:48;;;;;;;19.63;16.75;;;5.30;99.90;;;;;;4959558;28;20054;-46
2022/04/12 03:25:20;;;;;;;20.45;16.55;;;5.30;99.90;;;;;;4963265;28;20505;-45
2022/04/12 03:27:45;;;;;;;19.00;16.58;;;5.30;99.90;;;;;;4969950;28;20670;-44
2022/04/12 03:30:11;;;;;;;18.33;15.77;;;5.30;99.90;;;;;;4968338;28;20054;-43
2022/04/12 03:32:37;;;;;;;18.92;16.17;;;5.30;99.90;;;;;;4963758;28;20073;-45
2022/04/12 03:35:03;;;;;;;19.58;16.02;;;5.30;99.90;;;;;;4969911;28;20469;-46
2022/04/12 03:37:29;;;;;;;20.02;16.67;;;5.30;99.90;;;;;;4968688;28;20466;-46
2022/04/12 03:39:55;;;;;;;18.65;15.77;;;5.30;99.90;;;;;;4963343;28;20054;-44
2022/04/12 03:42:21;;;;;;;22.77;17.95;;;5.30;99.90;;;;;;4966129;28;20087;-44
2022/04/12 03:44:47;;;;;;;21.67;16.10;;;5.30;99.90;;;;;;4964031;28;20038;-45
2022/04/12 03:47:13;;;;;;;21.75;15.60;;;5.30;99.90;;;;;;4964625;28;20065;-44
2022/04/12 03:49:39;;;;;;;22.17;15.57;;;5.30;99.90;;;;;;4932502;28;20058;-44
2022/04/12 03:52:06;;;;;;;18.38;16.33;;;5.30;99.90;;;;;;4964016;28;20059;-45
2022/04/12 03:54:31;;;;;;;19.00;15.98;;;5.20;99.90;;;;;;4966382;28;20057;-45
2022/04/12 03:56:57;;;;;;;20.10;15.68;;;5.30;99.90;;;;;;4966615;28;20050;-45
2022/04/12 03:59:24;;;;;;;21.23;15.73;;;5.30;99.90;;;;;;4959780;28;20785;-45
2022/04/12 04:01:50;;;;;;;17.38;15.10;;;5.30;99.90;;;;;;4965522;28;20059;-45
2022/04/12 04:04:16;;;;;;;19.48;16.48;;;5.30;99.90;;;;;;4965946;28;20048;-45
2022/04/12 04:06:45;;;;;;;17.98;15.63;;;5.30;99.90;;;;;;4963904;28;20073;-46
2022/04/12 04:09:11;;;;;;;18.40;15.35;;;5.30;99.90;;;;;;4951488;28;20129;-46
2022/04/12 04:11:40;;;;;;;19.13;15.25;;;5.40;99.90;;;;;;4965251;28;20125;-45
2022/04/12 04:14:10;;;;;;;19.80;15.20;;;5.40;99.90;;;;;;4964079;28;20049;-45
2022/04/12 04:16:38;;;;;;;19.55;15.90;;;5.40;99.90;;;;;;4963153;28;20063;-44
2022/04/12 04:19:04;;;;;;;18.30;16.25;;;5.40;99.90;;;;;;4951565;28;20413;-47
2022/04/12 04:21:30;;;;;;;20.13;15.70;;;5.40;99.90;;;;;;4975659;28;20157;-46
2022/04/12 04:23:56;;;;;;;16.95;15.15;;;5.40;99.90;;;;;;4973579;28;20050;-44
2022/04/12 04:26:22;;;;;;;20.20;15.68;;;5.40;99.90;;;;;;4951613;28;20157;-45
2022/04/12 04:28:49;;;;;;;16.50;14.75;;;5.40;99.90;;;;;;4974768;28;20082;-43
2022/04/12 04:31:15;;;;;;;18.90;15.35;;;5.40;99.90;;;;;;4972579;28;20102;-44
2022/04/12 04:33:41;;;;;;;18.95;16.30;;;5.40;99.90;;;;;;4963637;28;20140;-44
2022/04/12 04:36:07;;;;;;;18.77;14.85;;;5.40;99.90;;;;;;4964307;28;21012;-44
2022/04/12 04:38:32;;;;;;;19.25;15.82;;;5.40;99.90;;;;;;4967611;28;20046;-43
2022/04/12 04:40:58;;;;;;;16.33;14.05;;;5.40;99.90;;;;;;4969588;28;20193;-45
2022/04/12 04:43:24;;;;;;;16.50;14.75;;;5.40;99.90;;;;;;4966680;28;20082;-44
2022/04/12 04:45:51;;;;;;;18.85;15.70;;;5.30;99.90;;;;;;4965071;28;20614;-44
2022/04/12 04:48:17;;;;;;;16.90;14.52;;;5.30;99.90;;;;;;4971404;28;20096;-45
2022/04/12 04:50:42;;;;;;;18.92;14.50;;;5.30;99.90;;;;;;4964653;28;20133;-45
2022/04/12 04:53:11;;;;;;;19.83;15.68;;;5.30;99.90;;;;;;4962930;28;20038;-44
2022/04/12 04:55:39;;;;;;;16.40;14.73;;;5.40;99.90;;;;;;4963099;28;20047;-47
2022/04/12 04:58:05;;;;;;;20.52;15.50;;;5.40;99.90;;;;;;4962675;28;20138;-45
2022/04/12 05:00:34;;;;;;;17.05;14.52;;;5.40;99.90;;;;;;4962782;28;20109;-45
2022/04/12 05:03:01;;;;;;;15.93;14.23;;;5.40;99.90;;;;;;4958111;28;20097;-46
2022/04/12 05:05:27;;;;;;;18.73;14.73;;;5.50;99.90;;;;;;4968832;28;20078;-45
2022/04/12 05:07:54;;;;;;;18.38;14.43;;;5.50;99.90;;;;;;4959398;28;20125;-45
2022/04/12 05:10:30;;;;;;;18.98;14.98;;;5.50;99.90;;;;;;4962143;28;20070;-44
2022/04/12 05:12:58;;;;;;;19.00;14.57;;;5.60;99.90;;;;;;4966247;28;20489;-45
2022/04/12 05:15:24;;;;;;;16.52;13.60;;;5.70;99.90;;;;;;4943593;28;20122;-47
2022/04/12 05:17:54;;;;;;;17.17;13.55;;;5.70;99.90;;;;;;4935032;28;20283;-44
2022/04/12 05:20:40;;;;;;;17.08;13.93;;;5.80;99.90;;;;;;4962325;28;20527;-44
2022/04/12 05:23:07;;;;;;;19.48;14.55;;;5.90;99.90;;;;;;4959322;28;20070;-44
2022/04/12 05:25:33;;;;;;;14.32;12.88;;;5.90;99.90;;;;;;4976972;28;20065;-45
2022/04/12 05:27:58;;;;;;;19.83;15.35;;;6.00;99.90;;;;;;4947167;28;20513;-44
2022/04/12 05:30:24;;;;;;;18.00;14.48;;;6.20;99.90;;;;;;4972511;28;20143;-44
2022/04/12 05:32:50;;;;;;;17.85;13.70;;;6.30;99.90;;;;;;4972344;28;20484;-45
2022/04/12 05:35:17;;;;;;;17.48;13.70;;;6.60;99.90;;;;;;4976432;28;20472;-46
2022/04/12 05:37:53;;;;;;;16.42;14.68;;;6.90;99.90;;;;;;4969671;28;20518;-45
2022/04/12 05:40:21;;;;;;;17.70;13.88;;;6.80;99.90;;;;;;4970867;28;20050;-45
2022/04/12 05:42:47;;;;;;;16.10;13.18;;;6.70;99.90;;;;;;4971224;28;20560;-44
2022/04/12 05:45:14;;;;;;;18.77;13.88;;;6.70;99.90;;;;;;4973559;28;20416;-44
2022/04/12 05:47:41;;;;;;;16.98;13.10;;;6.70;99.90;;;;;;4965160;28;20420;-46
2022/04/12 05:50:14;;;;;;;16.10;13.00;;;6.70;99.90;;;;;;4968689;28;20062;-44
2022/04/12 05:52:40;;;;;;;15.52;12.85;;;6.70;99.90;;;;;;4971347;28;20225;-47
2022/04/12 05:55:08;;;;;;;15.80;12.63;;;6.70;99.90;;;;;;4969801;28;20553;-45
2022/04/12 05:57:48;;;;;;;17.08;13.27;;;6.70;99.90;;;;;;4989546;28;20503;-44
2022/04/12 06:00:14;;;;;;;18.02;12.73;;;6.80;99.90;;;;;;4950833;28;20062;-44
2022/04/12 06:02:40;;;;;;;14.27;12.80;;;6.80;99.90;;;;;;4973870;28;20123;-46
2022/04/12 06:05:06;;;;;;;25.00;17.40;;;6.80;99.90;;;;;;4967068;28;20067;-46
2022/04/12 06:07:34;;;;;;;44.47;31.02;;;6.90;99.90;;;;;;4972762;28;20056;-44
2022/04/12 06:10:01;;;;;;;25.10;18.70;;;7.00;99.90;;;;;;4967970;28;20067;-46
2022/04/12 06:12:31;;;;;;;17.52;12.60;;;7.10;99.90;;;;;;4976971;28;20100;-45
2022/04/12 06:14:58;;;;;;;18.50;13.85;;;7.10;99.90;;;;;;4971579;28;20043;-44
2022/04/12 06:17:31;;;;;;;13.98;11.73;;;7.20;99.90;;;;;;4956833;28;20240;-45
2022/04/12 06:20:17;;;;;;;13.60;12.18;;;7.20;99.90;;;;;;4975132;28;20058;-45
2022/04/12 06:22:48;;;;;;;13.25;11.63;;;7.30;99.90;;;;;;4965416;28;20421;-44
2022/04/12 06:25:16;;;;;;;13.68;12.05;;;7.40;99.90;;;;;;4966443;28;20061;-44
2022/04/12 06:27:46;;;;;;;15.70;11.82;;;7.40;99.90;;;;;;4971805;28;20046;-45
2022/04/12 06:30:17;;;;;;;13.52;11.50;;;7.50;99.90;;;;;;4974833;28;20249;-45
2022/04/12 06:32:44;;;;;;;17.83;12.63;;;7.60;99.90;;;;;;4966397;28;20060;-45
2022/04/12 06:35:11;;;;;;;14.95;13.07;;;7.60;99.90;;;;;;4969777;28;20085;-50
2022/04/12 06:37:39;;;;;;;14.27;12.43;;;7.70;99.90;;;;;;4969717;28;20398;-45
2022/04/12 06:40:07;;;;;;;15.02;11.50;;;7.80;99.90;;;;;;4975847;28;20034;-46
2022/04/12 16:06:39;;;;;;;12.10;9.45;;;19.70;99.40;;;;;;5307216;22;1293901;-43
2022/04/12 16:09:05;;;;;;;11.70;9.02;;;19.70;99.60;;;;;;5088842;28;20147;-42
2022/04/12 16:11:31;;;;;;;9.07;8.18;;;19.70;99.10;;;;;;5102101;28;20162;-42
2022/04/12 16:13:57;;;;;;;10.02;8.38;;;19.70;99.90;;;;;;5096969;28;20621;-42
2022/04/12 16:16:24;;;;;;;10.95;8.15;;;19.60;99.50;;;;;;5100880;28;20081;-42
2022/04/12 16:18:54;;;;;;;12.05;9.02;;;19.60;99.50;;;;;;5087557;28;20485;-42
2022/04/12 16:21:19;;;;;;;9.52;8.45;;;19.50;99.40;;;;;;5105136;28;20517;-43
2022/04/12 16:23:45;;;;;;;11.38;8.45;;;19.50;99.40;;;;;;5102019;28;20118;-43
2022/04/12 16:26:11;;;;;;;9.43;7.82;;;19.40;99.90;;;;;;5104710;28;20048;-43
2022/04/12 16:28:36;;;;;;;11.10;9.02;;;19.40;99.90;;;;;;5106116;28;20047;-42
2022/04/12 16:31:03;;;;;;;11.32;9.52;;;19.30;99.60;;;;;;5116114;27;20051;-44
2022/04/12 16:33:29;;;;;;;13.15;8.98;;;19.30;99.40;;;;;;5103931;28;20334;-45
2022/04/12 16:36:01;;;;;;;11.93;9.38;;;19.30;99.30;;;;;;5108730;27;20516;-42
2022/04/12 16:38:27;;;;;;;11.85;8.75;;;19.30;99.20;;;;;;5106540;28;20043;-44
2022/04/12 16:40:52;;;;;;;9.02;7.70;;;19.30;99.50;;;;;;5080925;28;20100;-43
2022/04/12 16:43:18;;;;;;;9.73;7.88;;;19.20;99.90;;;;;;5110034;28;20047;-45
2022/04/12 16:45:45;;;;;;;9.48;6.95;;;19.10;99.90;;;;;;5106616;28;20131;-42
2022/04/12 16:48:16;;;;;;;9.82;7.20;;;19.10;99.90;;;;;;5107162;28;20389;-42
2022/04/12 16:50:43;;;;;;;10.13;8.50;;;19.00;99.90;;;;;;5084497;28;20087;-42
2022/04/12 16:53:21;;;;;;;12.93;8.95;;;18.90;99.90;;;;;;5106148;28;20397;-43
2022/04/12 16:55:47;;;;;;;14.20;9.77;;;18.90;99.90;;;;;;5095205;28;20050;-42
2022/04/12 16:58:13;;;;;;;11.75;9.90;;;18.80;99.90;;;;;;5066181;28;20056;-43
2022/04/12 17:00:39;;;;;;;12.95;9.90;;;18.70;99.90;;;;;;5099086;28;20051;-42
2022/04/12 17:03:06;;;;;;;13.13;9.18;;;18.60;99.90;;;;;;5106050;27;20051;-42
2022/04/12 17:05:38;;;;;;;9.98;8.90;;;18.60;99.90;;;;;;5083591;28;20327;-42
2022/04/12 17:08:04;;;;;;;11.00;8.57;;;18.50;99.90;;;;;;5092445;28;20048;-42
2022/04/12 17:10:30;;;;;;;10.25;8.23;;;18.50;99.90;;;;;;5092607;28;20048;-43
2022/04/12 17:12:55;;;;;;;11.43;9.68;;;18.50;99.90;;;;;;5090158;27;20411;-43
2022/04/12 17:15:21;;;;;;;9.25;8.25;;;18.40;99.90;;;;;;5080763;28;20047;-43
2022/04/12 17:17:47;;;;;;;10.65;8.07;;;18.30;99.90;;;;;;5094796;27;20472;-44
2022/04/12 17:20:12;;;;;;;9.85;8.95;;;18.30;99.90;;;;;;5093701;28;20039;-44
2022/04/12 17:22:38;;;;;;;11.00;9.18;;;18.20;99.90;;;;;;5096775;27;20052;-43
2022/04/12 17:25:06;;;;;;;12.68;9.23;;;18.10;99.90;;;;;;5094233;27;20303;-43
2022/04/12 17:27:33;;;;;;;10.85;9.43;;;18.10;99.90;;;;;;5092476;28;20074;-42
2022/04/12 17:29:59;;;;;;;14.00;9.15;;;18.00;99.90;;;;;;5095172;27;20047;-43
2022/04/12 17:32:24;;;;;;;11.30;9.35;;;18.00;99.90;;;;;;5072384;28;20394;-43
2022/04/12 17:34:50;;;;;;;14.27;9.95;;;17.90;99.90;;;;;;5089485;27;20048;-42
2022/04/12 17:37:21;;;;;;;10.23;9.13;;;17.80;99.90;;;;;;5092630;28;20420;-44
2022/04/12 17:39:47;;;;;;;11.35;9.63;;;17.80;99.90;;;;;;5086433;28;20079;-43
2022/04/12 17:42:13;;;;;;;11.10;9.52;;;17.70;99.90;;;;;;5088347;28;20067;-43
2022/04/12 17:44:42;;;;;;;10.48;9.38;;;17.60;99.90;;;;;;5092547;28;20054;-43
2022/04/12 17:47:11;;;;;;;14.85;9.48;;;17.60;99.90;;;;;;5090228;28;20621;-42
2022/04/12 17:49:38;;;;;;;15.45;9.07;;;17.50;99.90;;;;;;5093111;28;20083;-42
2022/04/12 17:52:06;;;;;;;13.80;8.45;;;17.50;99.90;;;;;;5082032;27;20051;-42
2022/04/12 17:54:38;;;;;;;12.30;11.20;;;17.50;99.90;;;;;;5076101;28;20070;-43
2022/04/12 17:57:06;;;;;;;13.82;12.43;;;17.40;99.90;;;;;;5091641;28;20126;-42
2022/04/12 17:59:32;;;;;;;14.95;12.85;;;17.40;99.90;;;;;;5093694;28;20051;-42
2022/04/12 18:01:58;;;;;;;16.55;11.75;;;17.40;99.90;;;;;;5069609;28;20048;-42
2022/04/12 18:04:25;;;;;;;14.95;11.02;;;17.30;99.90;;;;;;5088162;27;20070;-42
2022/04/12 18:06:52;;;;;;;23.25;13.55;;;17.30;99.90;;;;;;5085464;28;20052;-43
2022/04/12 18:09:17;;;;;;;20.65;12.77;;;17.20;99.90;;;;;;5088753;27;20052;-44
2022/04/12 18:11:44;;;;;;;17.20;12.75;;;17.10;99.90;;;;;;5070921;28;20128;-44
2022/04/12 18:14:10;;;;;;;15.00;11.63;;;17.00;99.90;;;;;;5092307;28;20048;-44
2022/04/12 18:16:38;;;;;;;18.35;12.68;;;17.00;99.90;;;;;;5070614;28;20096;-43
2022/04/12 18:19:04;;;;;;;13.13;11.25;;;16.90;99.90;;;;;;5089012;27;20039;-43
2022/04/12 18:21:30;;;;;;;17.80;11.63;;;16.80;99.90;;;;;;5089440;28;20078;-43
2022/04/12 18:23:55;;;;;;;12.07;8.52;;;16.80;99.90;;;;;;5070258;28;20586;-42
2022/04/12 18:26:21;;;;;;;12.35;8.40;;;16.70;99.90;;;;;;5089455;28;20096;-43
2022/04/12 18:28:47;;;;;;;8.82;7.97;;;16.70;99.90;;;;;;5087459;28;20052;-42
2022/04/12 18:31:13;;;;;;;9.57;8.30;;;16.70;99.90;;;;;;5087570;28;20560;-42
2022/04/12 18:33:39;;;;;;;9.63;8.65;;;16.70;99.90;;;;;;5090607;28;20044;-45
2022/04/12 18:36:07;;;;;;;12.32;10.88;;;16.70;99.90;;;;;;5088029;28;20102;-42
2022/04/12 18:38:33;;;;;;;12.48;9.55;;;16.70;99.90;;;;;;5086005;28;20039;-43
2022/04/12 18:40:59;;;;;;;12.07;9.57;;;16.70;99.90;;;;;;5091371;27;20446;-43
2022/04/12 18:43:25;;;;;;;11.82;10.02;;;16.70;99.90;;;;;;5089643;28;20100;-43
2022/04/12 18:45:51;;;;;;;13.43;11.88;;;16.60;99.90;;;;;;5068716;28;20043;-42
2022/04/12 18:48:18;;;;;;;13.15;9.43;;;16.60;99.90;;;;;;5086480;27;20035;-43
2022/04/12 18:50:44;;;;;;;12.95;9.48;;;16.60;99.90;;;;;;5090782;28;20122;-43
2022/04/12 18:53:10;;;;;;;10.13;9.15;;;16.60;99.90;;;;;;5068296;28;20231;-42
2022/04/12 18:55:36;;;;;;;11.90;8.40;;;16.50;99.90;;;;;;5086467;28;20059;-42
2022/04/12 18:58:11;;;;;;;11.00;9.70;;;16.40;99.90;;;;;;5090059;28;20086;-43
2022/04/12 19:00:38;;;;;;;10.45;8.98;;;16.30;99.90;;;;;;5069670;28;20063;-42
2022/04/12 19:03:05;;;;;;;9.45;8.55;;;16.30;99.90;;;;;;5091882;27;20157;-42
2022/04/12 19:05:31;;;;;;;11.95;10.05;;;16.30;99.90;;;;;;5084145;28;20539;-43
2022/04/12 19:08:00;;;;;;;11.00;9.90;;;16.30;99.90;;;;;;5090752;27;20055;-42
2022/04/12 19:10:29;;;;;;;11.55;9.55;;;16.20;99.90;;;;;;5072637;28;20051;-43
2022/04/12 19:12:55;;;;;;;10.75;9.23;;;16.10;99.90;;;;;;5089379;28;20058;-50
2022/04/12 19:15:20;;;;;;;12.57;8.77;;;16.10;99.90;;;;;;5092096;28;20580;-44
2022/04/12 19:17:46;;;;;;;10.65;9.32;;;16.10;99.90;;;;;;5086262;28;20052;-43
2022/04/12 19:20:12;;;;;;;21.80;17.13;;;16.10;99.90;;;;;;5086475;27;20387;-43
2022/04/12 19:22:39;;;;;;;27.20;24.35;;;16.10;99.90;;;;;;5087609;27;20608;-42
2022/04/12 19:25:05;;;;;;;22.52;19.33;;;16.10;99.90;;;;;;5088675;28;20545;-42
2022/04/12 19:27:31;;;;;;;13.77;12.38;;;16.10;99.90;;;;;;5068886;28;20113;-46
2022/04/12 19:29:59;;;;;;;11.68;10.27;;;16.10;99.90;;;;;;5087114;28;20039;-43
2022/04/12 19:32:25;;;;;;;13.35;11.38;;;16.10;99.90;;;;;;5088720;28;20162;-42
2022/04/12 19:34:52;;;;;;;14.20;12.25;;;16.20;99.90;;;;;;5087325;28;20134;-43
2022/04/12 19:37:18;;;;;;;21.23;18.55;;;16.20;99.90;;;;;;5073492;28;20126;-42
2022/04/12 19:39:44;;;;;;;18.60;13.10;;;16.20;99.90;;;;;;5069053;28;20638;-42
2022/04/12 19:42:11;;;;;;;23.98;21.38;;;16.20;99.90;;;;;;5085544;27;20036;-43
2022/04/12 19:44:40;;;;;;;20.52;17.33;;;16.20;99.90;;;;;;5087685;28;20051;-45
2022/04/12 19:47:08;;;;;;;10.95;8.77;;;16.10;99.90;;;;;;5088811;28;20062;-42
2022/04/12 19:49:34;;;;;;;11.20;9.13;;;16.10;99.90;;;;;;5088783;28;20480;-43
2022/04/12 19:51:59;;;;;;;7.38;6.68;;;16.10;99.90;;;;;;5088255;28;20036;-43
2022/04/12 19:54:26;;;;;;;8.60;7.65;;;16.00;99.90;;;;;;5068232;28;20123;-43
2022/04/12 19:57:04;;;;;;;11.10;7.25;;;15.90;99.90;;;;;;5092105;28;20625;-42
2022/04/12 19:59:35;;;;;;;10.38;7.53;;;15.90;99.90;;;;;;5091637;28;20932;-43
2022/04/12 20:02:01;;;;;;;8.48;6.78;;;15.80;99.90;;;;;;5074181;28;20057;-43
2022/04/12 20:04:29;;;;;;;9.85;6.43;;;15.70;99.90;;;;;;5087450;28;20505;-42
2022/04/12 20:06:55;;;;;;;9.85;7.55;;;15.70;99.90;;;;;;5086518;28;20529;-42
2022/04/12 20:09:21;;;;;;;8.40;6.93;;;15.70;99.90;;;;;;5083786;28;20059;-44
2022/04/12 20:11:46;;;;;;;9.25;6.60;;;15.60;99.90;;;;;;5079587;28;20504;-42
2022/04/12 20:14:12;;;;;;;6.90;6.15;;;15.50;99.90;;;;;;5078293;28;20370;-43
2022/04/12 20:16:39;;;;;;;7.40;6.45;;;15.50;99.90;;;;;;5079863;28;20569;-42
2022/04/12 20:19:05;;;;;;;7.80;6.82;;;15.50;99.90;;;;;;5079797;28;20040;-42
2022/04/12 20:21:31;;;;;;;8.20;6.93;;;15.40;99.90;;;;;;5080281;28;20528;-44
2022/04/12 20:23:56;;;;;;;7.43;6.65;;;15.40;99.90;;;;;;5082029;28;20381;-43
2022/04/12 20:26:22;;;;;;;7.47;6.78;;;15.30;99.90;;;;;;5080324;28;20159;-42
2022/04/12 20:28:48;;;;;;;7.93;7.10;;;15.20;99.90;;;;;;5087772;28;20058;-44
2022/04/12 20:31:19;;;;;;;7.43;6.72;;;15.20;99.90;;;;;;5076643;28;20091;-45
2022/04/12 20:33:45;;;;;;;7.97;7.28;;;15.00;99.90;;;;;;5072012;28;20051;-41
2022/04/12 20:36:11;;;;;;;9.57;7.18;;;15.00;99.90;;;;;;5094234;28;20048;-43
2022/04/12 20:38:48;;;;;;;8.65;7.13;;;14.90;99.90;;;;;;5095676;28;20506;-42
2022/04/12 20:41:14;;;;;;;7.05;6.32;;;14.90;99.90;;;;;;5091771;28;20044;-42
2022/04/12 20:43:40;;;;;;;7.97;6.60;;;14.90;99.90;;;;;;5092224;28;20050;-42
2022/04/12 20:46:06;;;;;;;10.15;7.47;;;14.80;99.90;;;;;;5093575;28;20086;-42
2022/04/12 20:48:32;;;;;;;8.90;6.50;;;14.70;99.90;;;;;;5072984;28;20615;-42
2022/04/12 20:50:58;;;;;;;7.88;6.65;;;14.70;99.90;;;;;;5091248;28;20044;-42
2022/04/12 20:53:24;;;;;;;8.48;6.97;;;14.70;99.90;;;;;;5090041;28;20044;-44
2022/04/12 20:55:49;;;;;;;7.53;6.82;;;14.70;99.90;;;;;;5092012;28;20107;-42
2022/04/12 20:58:22;;;;;;;8.18;6.90;;;14.60;99.90;;;;;;5087646;28;20055;-42
2022/04/12 21:00:48;;;;;;;9.05;6.63;;;14.60;99.90;;;;;;5091749;28;20129;-44
2022/04/12 21:03:14;;;;;;;8.30;6.80;;;14.60;99.90;;;;;;5072907;28;20052;-43
2022/04/12 21:05:40;;;;;;;11.60;6.53;;;14.60;99.90;;;;;;5100390;28;20496;-43
2022/04/12 21:08:06;;;;;;;7.68;6.80;;;14.50;99.90;;;;;;5103368;27;20490;-41
2022/04/12 21:10:32;;;;;;;6.93;6.32;;;14.40;99.90;;;;;;5082422;28;20171;-42
2022/04/12 21:12:58;;;;;;;8.98;7.03;;;14.40;99.90;;;;;;5109191;27;20050;-42
2022/04/12 21:15:24;;;;;;;8.00;7.20;;;14.40;99.90;;;;;;5092201;27;20130;-42
2022/04/12 21:17:50;;;;;;;8.05;6.93;;;14.40;99.90;;;;;;5098394;28;20440;-42
2022/04/12 21:20:16;;;;;;;10.05;6.35;;;14.40;99.90;;;;;;5101666;28;20054;-42
2022/04/12 21:22:42;;;;;;;9.27;7.18;;;14.40;99.90;;;;;;5081274;28;20112;-41
2022/04/12 21:25:11;;;;;;;7.68;6.80;;;14.40;99.90;;;;;;5101776;28;20108;-42
2022/04/12 21:27:37;;;;;;;8.73;7.28;;;14.40;99.90;;;;;;5082489;28;20044;-43
2022/04/12 21:30:03;;;;;;;8.18;7.03;;;14.30;99.90;;;;;;5094331;28;20055;-44
2022/04/12 21:32:30;;;;;;;8.48;6.85;;;14.20;99.90;;;;;;5082898;28;20208;-43
2022/04/12 21:34:56;;;;;;;8.00;7.20;;;14.20;99.90;;;;;;5083148;28;20055;-41
2022/04/12 21:37:22;;;;;;;7.63;6.55;;;14.20;99.90;;;;;;5106048;28;20046;-42
2022/04/12 21:39:47;;;;;;;9.98;7.30;;;14.20;99.90;;;;;;5084736;28;20146;-42
2022/04/12 21:42:13;;;;;;;8.05;6.85;;;14.20;99.90;;;;;;5082166;28;20135;-42
2022/04/12 21:44:41;;;;;;;10.15;7.57;;;14.10;99.90;;;;;;5101751;28;20047;-42
2022/04/12 21:47:07;;;;;;;8.88;7.43;;;14.10;99.90;;;;;;5102195;27;20105;-42
2022/04/12 21:49:32;;;;;;;7.75;6.78;;;14.00;99.90;;;;;;5083635;28;20576;-42
2022/04/12 21:51:59;;;;;;;8.82;7.00;;;14.10;99.90;;;;;;5084635;28;20062;-43
2022/04/12 21:54:26;;;;;;;8.60;7.22;;;14.00;99.90;;;;;;5099423;28;20069;-44
2022/04/12 21:56:52;;;;;;;10.23;7.43;;;14.00;99.90;;;;;;5082928;28;20052;-43
2022/04/12 21:59:21;;;;;;;10.73;8.02;;;13.90;99.90;;;;;;5099544;28;20043;-42
2022/04/12 22:01:47;;;;;;;9.23;8.27;;;13.90;99.90;;;;;;5099652;28;20381;-44